sensor_id;sensor_type;location;lat;lon;timestamp;pressure;altitude;pressure_sealevel;temperature;humidity
16834;BME280;8533;48.426;10.868;2023-06-22T00:01:45;96159.38;;;18.94;100.00
16834;BME280;8533;48.426;10.868;2023-06-22T00:04:11;96214.50;;;19.33;100.00
16834;BME280;8533;48.426;10.868;2023-06-22T00:06:36;96198.50;;;19.25;100.00
16834;BME280;8533;48.426;10.868;2023-06-22T00:09:01;96203.31;;;19.36;100.00
16834;BME280;8533;48.426;10.868;2023-06-22T00:11:27;96165.84;;;19.02;100.00
16834;BME280;8533;48.426;10.868;2023-06-22T00:13:52;96149.66;;;18.90;100.00
16834;BME280;8533;48.426;10.868;2023-06-22T00:16:18;96180.97;;;19.01;100.00
16834;BME280;8533;48.426;10.868;2023-06-22T00:18:43;96225.69;;;19.30;100.00
16834;BME280;8533;48.426;10.868;2023-06-22T00:21:12;96155.47;;;18.78;100.00
16834;BME280;8533;48.426;10.868;2023-06-22T00:23:37;96235.47;;;19.21;100.00
16834;BME280;8533;48.426;10.868;2023-06-22T00:26:03;96207.88;;;19.09;100.00
16834;BME280;8533;48.426;10.868;2023-06-22T00:28:28;96222.19;;;19.21;100.00
16834;BME280;8533;48.426;10.868;2023-06-22T00:30:54;96227.59;;;19.16;100.00
16834;BME280;8533;48.426;10.868;2023-06-22T00:33:19;96225.06;;;19.11;100.00
16834;BME280;8533;48.426;10.868;2023-06-22T00:35:44;96229.88;;;19.09;100.00
16834;BME280;8533;48.426;10.868;2023-06-22T00:38:10;96236.34;;;19.03;100.00
16834;BME280;8533;48.426;10.868;2023-06-22T00:40:36;96235.56;;;19.02;100.00
16834;BME280;8533;48.426;10.868;2023-06-22T00:43:02;96221.03;;;19.00;100.00
16834;BME280;8533;48.426;10.868;2023-06-22T00:45:27;96221.63;;;18.97;100.00
16834;BME280;8533;48.426;10.868;2023-06-22T00:47:54;96220.66;;;18.93;100.00
16834;BME280;8533;48.426;10.868;2023-06-22T00:50:22;96182.97;;;18.68;100.00
16834;BME280;8533;48.426;10.868;2023-06-22T00:52:51;96198.06;;;18.82;100.00
16834;BME280;8533;48.426;10.868;2023-06-22T00:55:17;96210.44;;;18.86;100.00
16834;BME280;8533;48.426;10.868;2023-06-22T00:57:45;96163.41;;;18.51;100.00
16834;BME280;8533;48.426;10.868;2023-06-22T01:00:12;96048.91;;;17.85;100.00
16834;BME280;8533;48.426;10.868;2023-06-22T01:02:44;96199.66;;;18.69;100.00
16834;BME280;8533;48.426;10.868;2023-06-22T01:05:15;96163.78;;;18.44;100.00
16834;BME280;8533;48.426;10.868;2023-06-22T01:07:59;96209.97;;;18.71;100.00
16834;BME280;8533;48.426;10.868;2023-06-22T01:13:07;96069.69;;;17.78;100.00
16834;BME280;8533;48.426;10.868;2023-06-22T01:15:49;96251.47;;;18.61;100.00
16834;BME280;8533;48.426;10.868;2023-06-22T01:18:17;96171.44;;;18.32;100.00
16834;BME280;8533;48.426;10.868;2023-06-22T01:20:43;96217.13;;;18.56;100.00
16834;BME280;8533;48.426;10.868;2023-06-22T01:26:05;96220.53;;;18.57;100.00
16834;BME280;8533;48.426;10.868;2023-06-22T01:28:40;96221.03;;;18.59;100.00
16834;BME280;8533;48.426;10.868;2023-06-22T01:31:08;96189.19;;;18.32;100.00
16834;BME280;8533;48.426;10.868;2023-06-22T01:33:37;96043.91;;;17.38;100.00
16834;BME280;8533;48.426;10.868;2023-06-22T01:36:04;96076.47;;;17.52;100.00
16834;BME280;8533;48.426;10.868;2023-06-22T01:38:29;96239.88;;;18.57;100.00
16834;BME280;8533;48.426;10.868;2023-06-22T01:40:57;96229.34;;;18.52;100.00
16834;BME280;8533;48.426;10.868;2023-06-22T01:43:23;96219.59;;;18.34;100.00
16834;BME280;8533;48.426;10.868;2023-06-22T01:45:51;96232.00;;;18.52;100.00
16834;BME280;8533;48.426;10.868;2023-06-22T01:48:17;96240.06;;;18.61;100.00
16834;BME280;8533;48.426;10.868;2023-06-22T01:50:43;96229.84;;;18.54;100.00
16834;BME280;8533;48.426;10.868;2023-06-22T01:53:08;96251.97;;;18.63;100.00
16834;BME280;8533;48.426;10.868;2023-06-22T01:55:33;96235.94;;;18.55;100.00
16834;BME280;8533;48.426;10.868;2023-06-22T01:57:59;96241.38;;;18.63;100.00
16834;BME280;8533;48.426;10.868;2023-06-22T02:00:25;96222.63;;;18.41;100.00
16834;BME280;8533;48.426;10.868;2023-06-22T02:05:26;96237.97;;;18.44;100.00
16834;BME280;8533;48.426;10.868;2023-06-22T02:08:02;96231.47;;;18.37;100.00
16834;BME280;8533;48.426;10.868;2023-06-22T02:10:32;96201.13;;;18.15;100.00
16834;BME280;8533;48.426;10.868;2023-06-22T02:12:58;96231.25;;;18.33;100.00
16834;BME280;8533;48.426;10.868;2023-06-22T02:15:24;96220.19;;;18.31;100.00
16834;BME280;8533;48.426;10.868;2023-06-22T02:17:50;96218.41;;;18.26;100.00
16834;BME280;8533;48.426;10.868;2023-06-22T02:20:16;96227.41;;;18.25;100.00
16834;BME280;8533;48.426;10.868;2023-06-22T02:22:41;96182.09;;;18.00;100.00
16834;BME280;8533;48.426;10.868;2023-06-22T02:25:07;96204.47;;;18.21;100.00
16834;BME280;8533;48.426;10.868;2023-06-22T02:27:33;96221.56;;;18.28;100.00
16834;BME280;8533;48.426;10.868;2023-06-22T02:29:58;96211.34;;;18.22;100.00
16834;BME280;8533;48.426;10.868;2023-06-22T02:32:23;96214.97;;;18.26;100.00
16834;BME280;8533;48.426;10.868;2023-06-22T02:34:49;96214.50;;;18.24;100.00
16834;BME280;8533;48.426;10.868;2023-06-22T02:37:14;96217.63;;;18.26;100.00
16834;BME280;8533;48.426;10.868;2023-06-22T02:39:40;96225.84;;;18.24;100.00
16834;BME280;8533;48.426;10.868;2023-06-22T02:42:06;96225.09;;;18.24;100.00
16834;BME280;8533;48.426;10.868;2023-06-22T02:44:31;96225.56;;;18.26;100.00
16834;BME280;8533;48.426;10.868;2023-06-22T02:46:57;96226.84;;;18.28;100.00
16834;BME280;8533;48.426;10.868;2023-06-22T02:49:23;96214.56;;;18.19;100.00
16834;BME280;8533;48.426;10.868;2023-06-22T02:51:48;96227.34;;;18.30;100.00
16834;BME280;8533;48.426;10.868;2023-06-22T02:54:14;96215.16;;;18.16;100.00
16834;BME280;8533;48.426;10.868;2023-06-22T02:56:39;96171.16;;;17.87;100.00
16834;BME280;8533;48.426;10.868;2023-06-22T02:59:06;96240.66;;;18.25;100.00
16834;BME280;8533;48.426;10.868;2023-06-22T03:01:31;96227.41;;;18.12;100.00
16834;BME280;8533;48.426;10.868;2023-06-22T03:04:03;96215.03;;;18.07;100.00
16834;BME280;8533;48.426;10.868;2023-06-22T03:06:28;96224.75;;;18.12;100.00
16834;BME280;8533;48.426;10.868;2023-06-22T03:08:59;96229.53;;;18.10;100.00
16834;BME280;8533;48.426;10.868;2023-06-22T03:11:25;96234.84;;;18.10;100.00
16834;BME280;8533;48.426;10.868;2023-06-22T03:13:50;96235.22;;;18.03;100.00
16834;BME280;8533;48.426;10.868;2023-06-22T03:16:17;96229.41;;;18.01;100.00
16834;BME280;8533;48.426;10.868;2023-06-22T03:18:42;96229.72;;;18.00;100.00
16834;BME280;8533;48.426;10.868;2023-06-22T03:21:08;96235.69;;;17.91;100.00
16834;BME280;8533;48.426;10.868;2023-06-22T03:23:33;96222.72;;;17.90;100.00
16834;BME280;8533;48.426;10.868;2023-06-22T03:25:58;96224.00;;;17.92;100.00
16834;BME280;8533;48.426;10.868;2023-06-22T03:28:24;96223.53;;;17.90;100.00
16834;BME280;8533;48.426;10.868;2023-06-22T03:30:49;96224.31;;;17.91;100.00
16834;BME280;8533;48.426;10.868;2023-06-22T03:33:14;96230.38;;;17.91;100.00
16834;BME280;8533;48.426;10.868;2023-06-22T03:35:39;96211.06;;;17.91;100.00
16834;BME280;8533;48.426;10.868;2023-06-22T03:38:05;96222.34;;;17.97;100.00
16834;BME280;8533;48.426;10.868;2023-06-22T03:40:30;96202.41;;;17.85;100.00
16834;BME280;8533;48.426;10.868;2023-06-22T03:42:55;96224.63;;;18.03;100.00
16834;BME280;8533;48.426;10.868;2023-06-22T03:45:21;96220.13;;;18.04;100.00
16834;BME280;8533;48.426;10.868;2023-06-22T03:47:46;96216.50;;;18.00;100.00
16834;BME280;8533;48.426;10.868;2023-06-22T03:50:11;96211.75;;;17.97;100.00
16834;BME280;8533;48.426;10.868;2023-06-22T03:52:36;96220.63;;;18.06;100.00
16834;BME280;8533;48.426;10.868;2023-06-22T03:55:02;96219.63;;;18.02;100.00
16834;BME280;8533;48.426;10.868;2023-06-22T03:57:27;96216.19;;;18.01;100.00
16834;BME280;8533;48.426;10.868;2023-06-22T03:59:56;96207.94;;;18.03;100.00
16834;BME280;8533;48.426;10.868;2023-06-22T04:02:21;96189.31;;;17.94;100.00
16834;BME280;8533;48.426;10.868;2023-06-22T04:04:46;96219.75;;;18.10;100.00
16834;BME280;8533;48.426;10.868;2023-06-22T04:07:12;96224.66;;;18.17;100.00
16834;BME280;8533;48.426;10.868;2023-06-22T04:09:37;96221.44;;;18.20;100.00
16834;BME280;8533;48.426;10.868;2023-06-22T04:12:02;96240.88;;;18.29;100.00
16834;BME280;8533;48.426;10.868;2023-06-22T04:14:28;96226.75;;;18.34;100.00
16834;BME280;8533;48.426;10.868;2023-06-22T04:16:53;96229.13;;;18.35;100.00
16834;BME280;8533;48.426;10.868;2023-06-22T04:19:18;96237.28;;;18.39;100.00
16834;BME280;8533;48.426;10.868;2023-06-22T04:21:44;96238.75;;;18.45;100.00
16834;BME280;8533;48.426;10.868;2023-06-22T04:24:14;96241.63;;;18.48;100.00
16834;BME280;8533;48.426;10.868;2023-06-22T04:26:39;96214.97;;;18.26;100.00
16834;BME280;8533;48.426;10.868;2023-06-22T04:29:06;96248.66;;;18.53;100.00
16834;BME280;8533;48.426;10.868;2023-06-22T04:31:37;96244.09;;;18.58;100.00
16834;BME280;8533;48.426;10.868;2023-06-22T04:34:04;96231.84;;;18.62;100.00
16834;BME280;8533;48.426;10.868;2023-06-22T04:36:37;96215.81;;;18.54;100.00
16834;BME280;8533;48.426;10.868;2023-06-22T04:39:08;96228.91;;;18.64;100.00
16834;BME280;8533;48.426;10.868;2023-06-22T04:41:37;96224.84;;;18.66;100.00
16834;BME280;8533;48.426;10.868;2023-06-22T04:44:13;96194.00;;;18.43;100.00
16834;BME280;8533;48.426;10.868;2023-06-22T04:46:39;96213.00;;;18.64;100.00
16834;BME280;8533;48.426;10.868;2023-06-22T04:49:09;96228.22;;;18.72;100.00
16834;BME280;8533;48.426;10.868;2023-06-22T04:51:40;96253.63;;;18.73;100.00
16834;BME280;8533;48.426;10.868;2023-06-22T04:54:05;96237.34;;;18.80;100.00
16834;BME280;8533;48.426;10.868;2023-06-22T04:56:32;96234.59;;;18.85;100.00
16834;BME280;8533;48.426;10.868;2023-06-22T04:58:57;96200.81;;;18.63;100.00
16834;BME280;8533;48.426;10.868;2023-06-22T05:01:23;96228.31;;;18.94;100.00
16834;BME280;8533;48.426;10.868;2023-06-22T05:03:49;96222.59;;;19.01;100.00
16834;BME280;8533;48.426;10.868;2023-06-22T05:06:15;96208.75;;;19.04;100.00
16834;BME280;8533;48.426;10.868;2023-06-22T05:08:40;96199.78;;;19.14;100.00
16834;BME280;8533;48.426;10.868;2023-06-22T05:11:05;96193.91;;;19.17;100.00
16834;BME280;8533;48.426;10.868;2023-06-22T05:13:31;96197.22;;;19.22;100.00
16834;BME280;8533;48.426;10.868;2023-06-22T05:15:57;96199.59;;;19.24;100.00
16834;BME280;8533;48.426;10.868;2023-06-22T05:18:27;96185.28;;;19.11;100.00
16834;BME280;8533;48.426;10.868;2023-06-22T05:20:54;96209.78;;;19.30;100.00
16834;BME280;8533;48.426;10.868;2023-06-22T05:23:19;96211.84;;;19.33;100.00
16834;BME280;8533;48.426;10.868;2023-06-22T05:25:45;96208.28;;;19.38;100.00
16834;BME280;8533;48.426;10.868;2023-06-22T05:28:10;96216.44;;;19.41;100.00
16834;BME280;8533;48.426;10.868;2023-06-22T05:30:36;96208.88;;;19.49;100.00
16834;BME280;8533;48.426;10.868;2023-06-22T05:33:02;96197.19;;;19.50;100.00
16834;BME280;8533;48.426;10.868;2023-06-22T05:35:27;96191.75;;;19.55;100.00
16834;BME280;8533;48.426;10.868;2023-06-22T05:37:52;96186.84;;;19.62;100.00
16834;BME280;8533;48.426;10.868;2023-06-22T05:40:18;96200.66;;;19.72;100.00
16834;BME280;8533;48.426;10.868;2023-06-22T05:42:43;96172.22;;;19.73;100.00
16834;BME280;8533;48.426;10.868;2023-06-22T05:45:09;96195.16;;;19.91;100.00
16834;BME280;8533;48.426;10.868;2023-06-22T05:47:34;96184.00;;;19.80;100.00
16834;BME280;8533;48.426;10.868;2023-06-22T05:49:59;96191.28;;;19.97;100.00
16834;BME280;8533;48.426;10.868;2023-06-22T05:52:25;96145.81;;;19.68;100.00
16834;BME280;8533;48.426;10.868;2023-06-22T05:54:50;96179.63;;;20.07;100.00
16834;BME280;8533;48.426;10.868;2023-06-22T05:57:15;96181.41;;;20.20;100.00
16834;BME280;8533;48.426;10.868;2023-06-22T05:59:41;96180.69;;;20.28;100.00
16834;BME280;8533;48.426;10.868;2023-06-22T06:02:06;96184.03;;;20.34;100.00
16834;BME280;8533;48.426;10.868;2023-06-22T06:04:31;96185.88;;;20.33;100.00
16834;BME280;8533;48.426;10.868;2023-06-22T06:06:56;96185.38;;;20.31;100.00
16834;BME280;8533;48.426;10.868;2023-06-22T06:09:22;96178.88;;;20.37;100.00
16834;BME280;8533;48.426;10.868;2023-06-22T06:11:47;96163.72;;;20.38;100.00
16834;BME280;8533;48.426;10.868;2023-06-22T06:14:13;96156.38;;;20.35;100.00
16834;BME280;8533;48.426;10.868;2023-06-22T06:16:38;96156.84;;;20.37;100.00
16834;BME280;8533;48.426;10.868;2023-06-22T06:19:03;96094.34;;;20.08;100.00
16834;BME280;8533;48.426;10.868;2023-06-22T06:21:29;96129.81;;;20.43;100.00
16834;BME280;8533;48.426;10.868;2023-06-22T06:23:54;96165.41;;;20.73;100.00
16834;BME280;8533;48.426;10.868;2023-06-22T06:26:19;96166.34;;;20.77;100.00
16834;BME280;8533;48.426;10.868;2023-06-22T06:28:53;96155.09;;;20.80;100.00
16834;BME280;8533;48.426;10.868;2023-06-22T06:31:18;96059.06;;;20.16;100.00
16834;BME280;8533;48.426;10.868;2023-06-22T06:33:43;96171.91;;;21.07;100.00
16834;BME280;8533;48.426;10.868;2023-06-22T06:36:09;96164.75;;;21.24;100.00
16834;BME280;8533;48.426;10.868;2023-06-22T06:38:34;96161.94;;;21.38;100.00
16834;BME280;8533;48.426;10.868;2023-06-22T06:40:59;96159.28;;;21.64;100.00
16834;BME280;8533;48.426;10.868;2023-06-22T06:43:25;96147.66;;;21.77;100.00
16834;BME280;8533;48.426;10.868;2023-06-22T06:45:50;96132.47;;;21.69;100.00
16834;BME280;8533;48.426;10.868;2023-06-22T06:48:16;96152.81;;;21.91;100.00
16834;BME280;8533;48.426;10.868;2023-06-22T06:50:42;96150.31;;;22.03;100.00
16834;BME280;8533;48.426;10.868;2023-06-22T06:53:09;96147.94;;;22.10;100.00
16834;BME280;8533;48.426;10.868;2023-06-22T06:55:34;96145.72;;;22.21;100.00
16834;BME280;8533;48.426;10.868;2023-06-22T06:58:00;96113.63;;;22.00;100.00
16834;BME280;8533;48.426;10.868;2023-06-22T07:00:26;96149.34;;;22.54;100.00
16834;BME280;8533;48.426;10.868;2023-06-22T07:02:52;96141.91;;;22.68;100.00
16834;BME280;8533;48.426;10.868;2023-06-22T07:05:18;96148.94;;;22.73;100.00
16834;BME280;8533;48.426;10.868;2023-06-22T07:07:43;96143.28;;;22.83;100.00
16834;BME280;8533;48.426;10.868;2023-06-22T07:10:09;96129.28;;;22.86;100.00
16834;BME280;8533;48.426;10.868;2023-06-22T07:12:34;96141.94;;;23.18;100.00
16834;BME280;8533;48.426;10.868;2023-06-22T07:15:07;96136.03;;;23.34;100.00
16834;BME280;8533;48.426;10.868;2023-06-22T07:17:34;96055.63;;;22.94;100.00
16834;BME280;8533;48.426;10.868;2023-06-22T07:20:00;96103.19;;;23.33;100.00
16834;BME280;8533;48.426;10.868;2023-06-22T07:22:25;96121.59;;;23.68;100.00
16834;BME280;8533;48.426;10.868;2023-06-22T07:24:50;96121.72;;;23.71;100.00
16834;BME280;8533;48.426;10.868;2023-06-22T07:27:16;96124.41;;;23.71;100.00
16834;BME280;8533;48.426;10.868;2023-06-22T07:29:44;96132.94;;;23.98;100.00
16834;BME280;8533;48.426;10.868;2023-06-22T07:32:10;96122.00;;;24.23;100.00
16834;BME280;8533;48.426;10.868;2023-06-22T07:34:35;96117.44;;;24.36;100.00
16834;BME280;8533;48.426;10.868;2023-06-22T07:37:00;96127.25;;;24.32;97.72
16834;BME280;8533;48.426;10.868;2023-06-22T07:39:26;96109.53;;;24.40;96.50
16834;BME280;8533;48.426;10.868;2023-06-22T07:41:52;96106.19;;;24.43;95.38
16834;BME280;8533;48.426;10.868;2023-06-22T07:44:17;96102.63;;;24.63;96.11
16834;BME280;8533;48.426;10.868;2023-06-22T07:46:42;96101.81;;;24.75;98.90
16834;BME280;8533;48.426;10.868;2023-06-22T07:49:07;96109.50;;;25.00;93.49
16834;BME280;8533;48.426;10.868;2023-06-22T07:51:33;96114.06;;;25.00;91.29
16834;BME280;8533;48.426;10.868;2023-06-22T07:53:59;96117.81;;;25.23;92.45
16834;BME280;8533;48.426;10.868;2023-06-22T07:56:24;96112.94;;;25.53;87.03
16834;BME280;8533;48.426;10.868;2023-06-22T07:58:50;96116.88;;;25.71;86.43
16834;BME280;8533;48.426;10.868;2023-06-22T08:01:15;96087.84;;;25.73;84.19
16834;BME280;8533;48.426;10.868;2023-06-22T08:03:41;96112.28;;;26.00;84.76
16834;BME280;8533;48.426;10.868;2023-06-22T08:06:07;96122.56;;;26.13;83.19
16834;BME280;8533;48.426;10.868;2023-06-22T08:08:37;96111.41;;;26.11;81.36
16834;BME280;8533;48.426;10.868;2023-06-22T08:11:02;96119.50;;;26.43;82.24
16834;BME280;8533;48.426;10.868;2023-06-22T08:13:27;96095.44;;;26.31;80.80
16834;BME280;8533;48.426;10.868;2023-06-22T08:15:53;96112.13;;;26.55;80.82
16834;BME280;8533;48.426;10.868;2023-06-22T08:18:18;96110.69;;;26.93;79.05
16834;BME280;8533;48.426;10.868;2023-06-22T08:20:44;96106.63;;;26.99;76.45
16834;BME280;8533;48.426;10.868;2023-06-22T08:23:09;96105.47;;;27.16;78.16
16834;BME280;8533;48.426;10.868;2023-06-22T08:25:35;96102.44;;;27.56;74.27
16834;BME280;8533;48.426;10.868;2023-06-22T08:28:04;96106.88;;;27.67;73.60
16834;BME280;8533;48.426;10.868;2023-06-22T08:30:29;96118.03;;;27.31;76.62
16834;BME280;8533;48.426;10.868;2023-06-22T08:32:55;96075.63;;;27.40;75.24
16834;BME280;8533;48.426;10.868;2023-06-22T08:35:21;96103.69;;;27.43;76.25
16834;BME280;8533;48.426;10.868;2023-06-22T08:37:47;96118.75;;;27.66;74.18
16834;BME280;8533;48.426;10.868;2023-06-22T08:40:16;96116.81;;;27.63;77.90
16834;BME280;8533;48.426;10.868;2023-06-22T08:42:42;96089.84;;;28.02;73.19
16834;BME280;8533;48.426;10.868;2023-06-22T08:45:07;96103.28;;;28.21;72.45
16834;BME280;8533;48.426;10.868;2023-06-22T08:47:33;96055.69;;;27.83;73.46
16834;BME280;8533;48.426;10.868;2023-06-22T08:49:58;96105.09;;;28.40;70.00
16834;BME280;8533;48.426;10.868;2023-06-22T08:52:23;96106.09;;;28.55;70.39
16834;BME280;8533;48.426;10.868;2023-06-22T08:54:49;96098.59;;;28.67;68.95
16834;BME280;8533;48.426;10.868;2023-06-22T08:57:14;96091.84;;;28.77;70.71
16834;BME280;8533;48.426;10.868;2023-06-22T08:59:41;96094.22;;;29.08;67.87
16834;BME280;8533;48.426;10.868;2023-06-22T09:02:07;96086.06;;;29.05;67.05
16834;BME280;8533;48.426;10.868;2023-06-22T09:04:32;96091.59;;;29.15;63.78
16834;BME280;8533;48.426;10.868;2023-06-22T09:07:00;96085.09;;;29.20;63.41
16834;BME280;8533;48.426;10.868;2023-06-22T09:09:25;96086.28;;;29.22;67.26
16834;BME280;8533;48.426;10.868;2023-06-22T09:11:51;96077.22;;;29.34;67.47
16834;BME280;8533;48.426;10.868;2023-06-22T09:14:16;96087.63;;;29.69;65.51
16834;BME280;8533;48.426;10.868;2023-06-22T09:16:41;96093.44;;;29.38;68.48
16834;BME280;8533;48.426;10.868;2023-06-22T09:19:07;96063.78;;;29.38;64.14
16834;BME280;8533;48.426;10.868;2023-06-22T09:21:32;96088.84;;;30.12;63.36
16834;BME280;8533;48.426;10.868;2023-06-22T09:23:57;96093.22;;;30.24;62.98
16834;BME280;8533;48.426;10.868;2023-06-22T09:26:22;96082.84;;;29.92;62.07
16834;BME280;8533;48.426;10.868;2023-06-22T09:28:49;96084.34;;;29.49;62.94
16834;BME280;8533;48.426;10.868;2023-06-22T09:31:14;96081.84;;;29.67;62.77
16834;BME280;8533;48.426;10.868;2023-06-22T09:33:41;96059.56;;;30.14;61.42
16834;BME280;8533;48.426;10.868;2023-06-22T09:36:07;96046.22;;;29.51;63.90
16834;BME280;8533;48.426;10.868;2023-06-22T09:38:38;96063.78;;;29.38;65.21
16834;BME280;8533;48.426;10.868;2023-06-22T09:41:04;96058.28;;;29.31;63.29
16834;BME280;8533;48.426;10.868;2023-06-22T09:43:31;96056.56;;;29.45;64.00
16834;BME280;8533;48.426;10.868;2023-06-22T09:45:57;96060.06;;;29.86;63.79
16834;BME280;8533;48.426;10.868;2023-06-22T09:48:22;96052.28;;;30.18;61.90
16834;BME280;8533;48.426;10.868;2023-06-22T09:50:47;96048.78;;;30.18;63.12
16834;BME280;8533;48.426;10.868;2023-06-22T09:53:13;96054.22;;;29.44;63.76
16834;BME280;8533;48.426;10.868;2023-06-22T09:55:38;96012.69;;;29.48;61.98
16834;BME280;8533;48.426;10.868;2023-06-22T09:58:03;96030.47;;;29.93;62.53
16834;BME280;8533;48.426;10.868;2023-06-22T10:00:28;96049.25;;;30.23;61.15
16834;BME280;8533;48.426;10.868;2023-06-22T10:02:54;96042.31;;;29.85;62.67
16834;BME280;8533;48.426;10.868;2023-06-22T10:05:21;96027.66;;;30.23;59.82
16834;BME280;8533;48.426;10.868;2023-06-22T10:07:46;96031.44;;;30.15;60.36
16834;BME280;8533;48.426;10.868;2023-06-22T10:10:12;96039.88;;;30.61;60.47
16834;BME280;8533;48.426;10.868;2023-06-22T10:13:03;96041.63;;;31.01;57.38
16834;BME280;8533;48.426;10.868;2023-06-22T10:15:27;96040.22;;;30.09;62.36
16834;BME280;8533;48.426;10.868;2023-06-22T10:17:53;96052.63;;;30.17;64.09
16834;BME280;8533;48.426;10.868;2023-06-22T10:20:18;96056.38;;;30.02;62.40
16834;BME280;8533;48.426;10.868;2023-06-22T10:22:44;96034.44;;;29.66;63.48
16834;BME280;8533;48.426;10.868;2023-06-22T10:25:11;96064.75;;;29.56;64.07
16834;BME280;8533;48.426;10.868;2023-06-22T10:27:37;96067.81;;;29.51;62.47
16834;BME280;8533;48.426;10.868;2023-06-22T10:30:06;96066.06;;;29.69;65.10
16834;BME280;8533;48.426;10.868;2023-06-22T10:32:31;96046.09;;;29.77;62.09
16834;BME280;8533;48.426;10.868;2023-06-22T10:34:57;96032.59;;;29.77;63.50
16834;BME280;8533;48.426;10.868;2023-06-22T10:37:22;96051.31;;;30.44;61.96
16834;BME280;8533;48.426;10.868;2023-06-22T10:39:47;96057.72;;;30.77;62.91
16834;BME280;8533;48.426;10.868;2023-06-22T10:42:13;96059.59;;;31.41;58.98
16834;BME280;8533;48.426;10.868;2023-06-22T10:44:38;96042.66;;;31.59;56.94
16834;BME280;8533;48.426;10.868;2023-06-22T10:47:06;96047.28;;;31.58;55.09
16834;BME280;8533;48.426;10.868;2023-06-22T10:49:31;96058.59;;;32.06;56.60
16834;BME280;8533;48.426;10.868;2023-06-22T10:51:57;96048.94;;;32.48;54.30
16834;BME280;8533;48.426;10.868;2023-06-22T10:54:22;96042.72;;;32.79;50.65
16834;BME280;8533;48.426;10.868;2023-06-22T10:56:47;96005.84;;;33.07;49.19
16834;BME280;8533;48.426;10.868;2023-06-22T10:59:13;96036.78;;;33.23;50.70
16834;BME280;8533;48.426;10.868;2023-06-22T11:01:38;96046.16;;;32.97;50.43
16834;BME280;8533;48.426;10.868;2023-06-22T11:04:03;96020.00;;;33.46;48.99
16834;BME280;8533;48.426;10.868;2023-06-22T11:06:29;96048.78;;;33.19;50.76
16834;BME280;8533;48.426;10.868;2023-06-22T11:08:54;96058.56;;;31.81;52.49
16834;BME280;8533;48.426;10.868;2023-06-22T11:11:19;96061.63;;;31.73;52.71
16834;BME280;8533;48.426;10.868;2023-06-22T11:13:45;95998.63;;;31.72;54.45
16834;BME280;8533;48.426;10.868;2023-06-22T11:16:10;96021.09;;;31.94;51.32
16834;BME280;8533;48.426;10.868;2023-06-22T11:18:36;96032.25;;;32.81;50.57
16834;BME280;8533;48.426;10.868;2023-06-22T11:21:01;96030.56;;;33.26;47.66
16834;BME280;8533;48.426;10.868;2023-06-22T11:23:26;96019.09;;;32.83;48.63
16834;BME280;8533;48.426;10.868;2023-06-22T11:25:53;96029.56;;;32.67;48.09
16834;BME280;8533;48.426;10.868;2023-06-22T11:28:18;96036.53;;;32.43;51.35
16834;BME280;8533;48.426;10.868;2023-06-22T11:30:43;96035.16;;;33.40;48.58
16834;BME280;8533;48.426;10.868;2023-06-22T11:33:08;96039.06;;;33.98;46.37
16834;BME280;8533;48.426;10.868;2023-06-22T11:35:34;96035.25;;;34.43;44.61
16834;BME280;8533;48.426;10.868;2023-06-22T11:37:59;95990.41;;;34.25;44.54
16834;BME280;8533;48.426;10.868;2023-06-22T11:40:24;96029.47;;;33.86;45.75
16834;BME280;8533;48.426;10.868;2023-06-22T11:42:49;95969.63;;;32.51;48.81
16834;BME280;8533;48.426;10.868;2023-06-22T11:45:15;96011.44;;;33.51;46.95
16834;BME280;8533;48.426;10.868;2023-06-22T11:47:41;96006.34;;;32.73;47.84
16834;BME280;8533;48.426;10.868;2023-06-22T11:50:07;95960.56;;;32.93;46.28
16834;BME280;8533;48.426;10.868;2023-06-22T11:52:33;96008.50;;;33.21;46.70
16834;BME280;8533;48.426;10.868;2023-06-22T11:54:58;95953.22;;;33.63;45.28
16834;BME280;8533;48.426;10.868;2023-06-22T11:57:24;95988.44;;;34.22;45.95
16834;BME280;8533;48.426;10.868;2023-06-22T11:59:49;95983.41;;;34.27;44.84
16834;BME280;8533;48.426;10.868;2023-06-22T12:02:15;95970.16;;;33.85;44.72
16834;BME280;8533;48.426;10.868;2023-06-22T12:04:40;95976.59;;;33.46;47.10
16834;BME280;8533;48.426;10.868;2023-06-22T12:07:05;95976.16;;;32.71;46.79
16834;BME280;8533;48.426;10.868;2023-06-22T12:09:30;95982.41;;;31.62;51.64
16834;BME280;8533;48.426;10.868;2023-06-22T12:11:56;95956.03;;;31.27;51.26
16834;BME280;8533;48.426;10.868;2023-06-22T12:14:21;95972.28;;;31.44;50.07
16834;BME280;8533;48.426;10.868;2023-06-22T12:16:46;95967.31;;;31.82;50.68
16834;BME280;8533;48.426;10.868;2023-06-22T12:19:12;95941.03;;;31.93;50.96
16834;BME280;8533;48.426;10.868;2023-06-22T12:21:37;95963.03;;;32.38;48.65
16834;BME280;8533;48.426;10.868;2023-06-22T12:24:03;95964.56;;;32.46;49.80
16834;BME280;8533;48.426;10.868;2023-06-22T12:26:28;95952.53;;;32.72;45.82
16834;BME280;8533;48.426;10.868;2023-06-22T12:28:53;95960.63;;;32.68;46.04
16834;BME280;8533;48.426;10.868;2023-06-22T12:31:18;95952.16;;;32.66;44.01
16834;BME280;8533;48.426;10.868;2023-06-22T12:33:44;95950.53;;;32.86;44.63
16834;BME280;8533;48.426;10.868;2023-06-22T12:36:09;95949.72;;;32.96;45.66
16834;BME280;8533;48.426;10.868;2023-06-22T12:38:35;95938.25;;;32.57;46.31
16834;BME280;8533;48.426;10.868;2023-06-22T12:41:00;95942.94;;;32.39;47.67
16834;BME280;8533;48.426;10.868;2023-06-22T12:43:25;95899.50;;;32.60;49.53
16834;BME280;8533;48.426;10.868;2023-06-22T12:45:50;95938.72;;;33.32;47.16
16834;BME280;8533;48.426;10.868;2023-06-22T12:48:16;95942.50;;;33.45;47.55
16834;BME280;8533;48.426;10.868;2023-06-22T12:50:42;95917.19;;;33.62;45.56
16834;BME280;8533;48.426;10.868;2023-06-22T12:53:07;95951.97;;;34.26;44.32
16834;BME280;8533;48.426;10.868;2023-06-22T12:55:32;95946.91;;;34.96;42.87
16834;BME280;8533;48.426;10.868;2023-06-22T12:57:58;95949.59;;;34.66;42.98